createdAt,value
2018-07-02T00:01:43.616Z,0.70
2018-07-02T00:04:10.605Z,0.93
2018-07-02T00:09:22.341Z,1.00
2018-07-02T00:11:49.381Z,0.90
2018-07-02T00:14:16.366Z,1.17
2018-07-02T00:16:43.354Z,1.13
2018-07-02T00:19:10.374Z,1.03
2018-07-02T00:21:37.367Z,1.03
2018-07-02T00:24:05.274Z,1.13
2018-07-02T00:26:32.315Z,1.00
2018-07-02T00:28:59.318Z,1.00
2018-07-02T00:31:26.320Z,1.00
2018-07-02T00:33:53.347Z,0.90
2018-07-02T00:36:20.929Z,1.03
2018-07-02T00:38:47.924Z,1.00
2018-07-02T00:41:15.057Z,1.00
2018-07-02T00:43:42.060Z,0.90
2018-07-02T00:46:09.073Z,0.90
2018-07-02T00:48:36.192Z,1.07
2018-07-02T00:51:03.983Z,1.00
2018-07-02T00:53:31.083Z,1.13
2018-07-02T00:55:58.109Z,0.90
2018-07-02T00:58:25.107Z,1.00
2018-07-02T01:00:52.097Z,1.00
2018-07-02T01:03:19.121Z,0.80
2018-07-02T01:05:46.121Z,1.17
2018-07-02T01:08:13.112Z,1.10
2018-07-02T01:10:40.144Z,1.17
2018-07-02T01:13:07.134Z,1.00
2018-07-02T01:15:34.149Z,1.17
2018-07-02T01:18:01.183Z,1.43
2018-07-02T01:20:28.719Z,1.10
2018-07-02T01:25:35.087Z,1.40
2018-07-02T01:28:02.075Z,1.50
2018-07-02T01:30:29.102Z,1.23
2018-07-02T01:32:56.236Z,1.20
2018-07-02T01:35:23.241Z,1.10
2018-07-02T01:37:50.249Z,1.20
2018-07-02T01:40:17.380Z,1.20
2018-07-02T01:42:44.468Z,1.33
2018-07-02T01:45:11.462Z,1.10
2018-07-02T01:47:38.492Z,1.20
2018-07-02T01:50:05.493Z,1.50
2018-07-02T01:52:32.492Z,1.40
2018-07-02T01:54:59.543Z,1.03
2018-07-02T01:57:26.538Z,1.10
2018-07-02T01:59:53.567Z,1.20
2018-07-02T02:02:20.609Z,1.03
2018-07-02T02:04:47.613Z,1.23
2018-07-02T02:07:14.605Z,1.10
2018-07-02T02:09:41.652Z,1.47
2018-07-02T02:12:08.676Z,1.23
2018-07-02T02:14:35.665Z,1.10
2018-07-02T02:17:02.700Z,1.47
2018-07-02T02:19:29.704Z,1.70
2018-07-02T02:21:56.696Z,1.40
2018-07-02T02:24:23.723Z,1.40
2018-07-02T02:26:50.720Z,1.30
2018-07-02T02:29:17.734Z,1.50
2018-07-02T02:31:44.765Z,1.70
2018-07-02T02:34:11.756Z,2.10
2018-07-02T02:36:38.748Z,1.60
2018-07-02T02:39:05.780Z,1.90
2018-07-02T02:44:11.274Z,2.10
2018-07-02T02:46:38.273Z,2.00
2018-07-02T02:49:06.147Z,2.17
2018-07-02T02:51:35.938Z,1.80
2018-07-02T02:54:02.932Z,1.70
2018-07-02T02:56:29.938Z,2.00
2018-07-02T02:58:56.971Z,1.90
2018-07-02T03:01:23.985Z,1.70
2018-07-02T03:03:52.238Z,2.10
2018-07-02T03:06:20.000Z,2.00
2018-07-02T03:08:46.992Z,2.00
2018-07-02T03:11:13.972Z,1.57
2018-07-02T03:13:41.003Z,1.70
2018-07-02T03:16:08.146Z,2.33
2018-07-02T03:18:35.084Z,2.13
2018-07-02T03:21:02.111Z,1.87
2018-07-02T03:23:29.098Z,2.03
2018-07-02T03:25:56.089Z,2.00
2018-07-02T03:28:23.130Z,1.97
2018-07-02T03:30:50.146Z,1.90
2018-07-02T03:33:17.140Z,2.17
2018-07-02T03:35:44.620Z,2.00
2018-07-02T03:38:12.455Z,1.90
2018-07-02T03:40:39.443Z,1.97
2018-07-02T03:43:06.486Z,2.00
2018-07-02T03:45:33.619Z,2.40
2018-07-02T03:48:00.572Z,1.90
2018-07-02T03:50:27.598Z,1.90
2018-07-02T03:52:54.592Z,2.10
2018-07-02T03:58:00.098Z,2.20
2018-07-02T04:00:27.920Z,2.27
2018-07-02T04:05:35.079Z,2.50
2018-07-02T04:08:02.055Z,1.80
2018-07-02T04:10:29.055Z,2.07
2018-07-02T04:12:56.126Z,2.13
2018-07-02T04:15:24.035Z,2.23
2018-07-02T04:17:51.028Z,2.20
2018-07-02T04:20:18.063Z,2.23
2018-07-02T04:22:46.630Z,2.50
2018-07-02T04:25:13.785Z,2.00
2018-07-02T04:27:40.820Z,2.30
2018-07-02T04:30:08.059Z,1.97
2018-07-02T04:35:13.798Z,2.22
2018-07-02T04:37:40.791Z,2.40
2018-07-02T04:40:08.676Z,2.40
2018-07-02T04:42:35.654Z,2.80
2018-07-02T04:47:41.679Z,2.70
2018-07-02T04:50:08.677Z,2.80
2018-07-02T04:52:35.781Z,2.57
2018-07-02T04:55:03.672Z,2.50
2018-07-02T04:57:30.680Z,3.00
2018-07-02T04:59:57.665Z,2.80
2018-07-02T05:02:24.713Z,2.73
2018-07-02T05:07:32.558Z,3.00
2018-07-02T05:09:59.523Z,2.50
2018-07-02T05:12:26.513Z,3.17
2018-07-02T05:14:53.536Z,2.70
2018-07-02T05:17:20.525Z,2.73
2018-07-02T05:19:47.512Z,3.10
2018-07-02T05:22:14.566Z,2.63
2018-07-02T05:24:41.552Z,2.97
2018-07-02T05:27:08.543Z,2.80
2018-07-02T05:29:35.560Z,2.77
2018-07-02T05:32:02.555Z,2.87
2018-07-02T05:34:29.540Z,2.43
2018-07-02T05:36:56.564Z,2.77
2018-07-02T05:39:23.554Z,2.80
2018-07-02T05:41:50.548Z,3.13
2018-07-02T05:44:17.575Z,3.40
2018-07-02T05:46:44.649Z,2.40
2018-07-02T05:49:11.885Z,2.73
2018-07-02T05:51:39.025Z,2.10
2018-07-02T05:54:06.175Z,2.80
2018-07-02T05:56:33.138Z,2.33
2018-07-02T05:59:00.157Z,2.50
2018-07-02T06:01:27.153Z,2.43
2018-07-02T06:03:54.150Z,2.47
2018-07-02T06:06:21.193Z,2.40
2018-07-02T06:08:48.179Z,2.70
2018-07-02T06:11:15.165Z,1.90
2018-07-02T06:13:42.218Z,2.00
2018-07-02T06:16:09.205Z,1.90
2018-07-02T06:18:36.198Z,2.00
2018-07-02T06:21:03.213Z,1.60
2018-07-02T06:23:31.158Z,3.00
2018-07-02T06:25:58.173Z,1.93
2018-07-02T06:28:25.226Z,2.00
2018-07-02T06:33:31.635Z,2.25
2018-07-02T06:35:58.622Z,2.27
2018-07-02T06:38:25.624Z,1.90
2018-07-02T06:40:52.652Z,2.20
2018-07-02T06:43:19.641Z,2.20
2018-07-02T06:45:46.642Z,2.40
2018-07-02T06:48:13.687Z,2.67
2018-07-02T06:50:40.706Z,2.47
2018-07-02T06:53:07.703Z,2.10
2018-07-02T06:55:34.724Z,2.37
2018-07-02T06:58:01.808Z,2.00
2018-07-02T07:00:28.808Z,1.90
2018-07-02T07:02:55.889Z,1.80
2018-07-02T07:05:22.846Z,1.63
2018-07-02T07:07:49.868Z,1.67
2018-07-02T07:10:16.888Z,1.77
2018-07-02T07:12:44.852Z,1.73
2018-07-02T07:15:11.843Z,1.67
2018-07-02T07:17:38.860Z,1.60
2018-07-02T07:20:05.873Z,1.80
2018-07-02T07:22:32.878Z,1.97
2018-07-02T07:24:59.917Z,1.73
2018-07-02T07:27:26.928Z,2.10
2018-07-02T07:29:53.915Z,1.63
2018-07-02T07:32:21.792Z,1.70
2018-07-02T07:34:48.781Z,1.80
2018-07-02T07:37:15.857Z,1.83
2018-07-02T07:39:42.899Z,1.57
2018-07-02T07:42:09.880Z,1.47
2018-07-02T07:44:37.690Z,1.60
2018-07-02T07:47:04.805Z,1.83
2018-07-02T07:49:31.791Z,1.77
2018-07-02T07:54:39.301Z,1.80
2018-07-02T07:57:06.302Z,1.83
2018-07-02T07:59:34.252Z,1.87
2018-07-02T08:02:01.219Z,1.70
2018-07-02T08:04:28.208Z,1.50
2018-07-02T08:06:55.209Z,1.70
2018-07-02T08:09:22.230Z,1.60
2018-07-02T08:11:49.212Z,1.77
2018-07-02T08:14:16.208Z,1.60
2018-07-02T08:16:43.247Z,1.77
2018-07-02T08:19:10.265Z,1.67
2018-07-02T08:21:37.225Z,1.70
2018-07-02T08:24:04.247Z,1.47
2018-07-02T08:26:31.235Z,1.60
2018-07-02T08:28:58.242Z,1.73
2018-07-02T08:31:26.067Z,1.50
2018-07-02T08:33:53.052Z,1.93
2018-07-02T08:36:20.040Z,1.90
2018-07-02T08:38:47.080Z,2.10
2018-07-02T08:41:14.082Z,2.40
2018-07-02T08:43:41.158Z,2.17
2018-07-02T08:46:09.137Z,2.10
2018-07-02T08:48:36.152Z,2.00
2018-07-02T08:51:03.241Z,1.73
2018-07-02T08:53:30.262Z,2.20
2018-07-02T08:55:57.251Z,2.00
2018-07-02T08:58:24.958Z,1.93
2018-07-02T09:00:51.975Z,1.90
2018-07-02T09:03:18.960Z,2.20
2018-07-02T09:05:46.269Z,2.20
2018-07-02T09:08:13.302Z,1.87
2018-07-02T09:10:40.300Z,2.20
2018-07-02T09:13:07.291Z,2.50
2018-07-02T09:15:35.069Z,2.27
2018-07-02T09:20:41.347Z,2.20
2018-07-02T09:23:08.332Z,2.60
2018-07-02T09:25:36.145Z,2.60
2018-07-02T09:28:03.159Z,2.70
2018-07-02T09:30:30.159Z,2.53
2018-07-02T09:32:57.150Z,2.80
2018-07-02T09:35:25.019Z,2.63
2018-07-02T09:37:52.007Z,2.27
2018-07-02T09:40:19.007Z,2.37
2018-07-02T09:42:46.020Z,2.60
2018-07-02T09:45:13.039Z,2.70
2018-07-02T09:47:39.992Z,3.20
2018-07-02T09:50:07.016Z,2.90
2018-07-02T09:52:34.015Z,3.47
2018-07-02T09:55:01.015Z,3.17
2018-07-02T09:57:28.035Z,3.40
2018-07-02T09:59:55.106Z,3.17
2018-07-02T10:02:22.022Z,3.03
2018-07-02T10:04:49.060Z,3.57
2018-07-02T10:07:16.048Z,3.27
2018-07-02T10:09:43.038Z,4.00
2018-07-02T10:12:10.057Z,3.43
2018-07-02T10:14:37.071Z,3.13
2018-07-02T10:17:04.046Z,3.63
2018-07-02T10:19:31.089Z,3.40
2018-07-02T10:21:58.794Z,3.20
2018-07-02T10:24:25.777Z,3.63
2018-07-02T10:26:52.807Z,3.20
2018-07-02T10:29:19.817Z,3.60
2018-07-02T10:31:46.775Z,3.67
2018-07-02T10:34:13.806Z,3.70
2018-07-02T10:36:40.793Z,3.43
2018-07-02T10:41:48.313Z,3.63
2018-07-02T10:44:15.384Z,3.80
2018-07-02T10:46:42.372Z,3.60
2018-07-02T10:49:09.378Z,3.37
2018-07-02T10:51:36.365Z,4.00
2018-07-02T10:54:03.364Z,3.53
2018-07-02T10:56:30.401Z,3.40
2018-07-02T10:58:57.409Z,3.57
2018-07-02T11:01:25.397Z,3.93
2018-07-02T11:03:52.377Z,3.70
2018-07-02T11:06:19.368Z,3.80
2018-07-02T11:08:46.376Z,3.37
2018-07-02T11:11:13.428Z,3.80
2018-07-02T11:13:40.389Z,3.70
2018-07-02T11:16:07.400Z,4.00
2018-07-02T11:18:34.429Z,4.20
2018-07-02T11:21:02.305Z,4.10
2018-07-02T11:23:29.297Z,4.23
2018-07-02T11:25:56.324Z,3.60
2018-07-02T11:28:24.079Z,4.30
2018-07-02T11:30:51.064Z,4.17
2018-07-02T11:33:18.076Z,4.30
2018-07-02T11:35:45.075Z,4.10
2018-07-02T11:38:12.054Z,4.50
2018-07-02T11:40:39.077Z,4.83
2018-07-02T11:43:06.791Z,4.20
2018-07-02T11:45:33.792Z,3.93
2018-07-02T11:48:00.804Z,4.47
2018-07-02T11:50:28.771Z,4.43
2018-07-02T11:52:55.744Z,3.90
2018-07-02T11:55:22.794Z,3.80
2018-07-02T12:00:28.275Z,4.00
2018-07-02T12:02:55.262Z,3.37
2018-07-02T12:05:22.263Z,3.80
2018-07-02T12:07:49.305Z,3.62
2018-07-02T12:10:16.300Z,3.63
2018-07-02T12:12:43.285Z,4.50
2018-07-02T12:15:10.312Z,3.87
2018-07-02T12:17:38.266Z,4.33
2018-07-02T12:20:05.253Z,3.87
2018-07-02T12:22:33.235Z,3.97
2018-07-02T12:25:00.239Z,4.83
2018-07-02T12:27:28.070Z,3.57
2018-07-02T12:29:55.089Z,3.97
2018-07-02T12:32:22.086Z,3.70
2018-07-02T12:34:49.084Z,3.83
2018-07-02T12:37:16.124Z,4.37
2018-07-02T12:39:43.114Z,3.40
2018-07-02T12:42:10.248Z,3.83
2018-07-02T12:44:37.249Z,3.67
2018-07-02T12:47:04.256Z,3.30
2018-07-02T12:49:31.350Z,3.67
2018-07-02T12:51:58.384Z,3.30
2018-07-02T12:54:25.475Z,3.70
2018-07-02T12:56:52.458Z,3.10
2018-07-02T12:59:19.496Z,3.00
2018-07-02T13:01:47.319Z,3.15
2018-07-02T13:04:14.325Z,3.40
2018-07-02T13:06:45.645Z,2.90
2018-07-02T13:09:13.473Z,3.40
2018-07-02T13:11:40.456Z,3.40
2018-07-02T13:14:07.544Z,2.70
2018-07-02T13:16:34.559Z,3.17
2018-07-02T13:21:40.047Z,3.10
2018-07-02T13:24:07.037Z,2.80
2018-07-02T13:26:34.999Z,3.10
2018-07-02T13:29:02.119Z,3.20
2018-07-02T13:31:29.025Z,3.00
2018-07-02T13:33:56.023Z,2.87
2018-07-02T13:36:23.088Z,3.03
2018-07-02T13:38:50.052Z,3.03
2018-07-02T13:41:17.053Z,2.72
2018-07-02T13:43:44.081Z,3.10
2018-07-02T13:46:11.095Z,3.42
2018-07-02T13:48:38.104Z,2.92
2018-07-02T13:51:06.045Z,3.05
2018-07-02T13:53:33.029Z,2.70
2018-07-02T13:55:59.998Z,2.80
2018-07-02T13:58:27.061Z,2.72
2018-07-02T14:00:54.053Z,3.45
2018-07-02T14:03:21.136Z,2.85
2018-07-02T14:05:48.160Z,2.92
2018-07-02T14:08:15.161Z,3.03
2018-07-02T14:10:42.171Z,3.00
2018-07-02T14:13:09.214Z,2.80
2018-07-02T14:15:36.203Z,2.95
2018-07-02T14:18:04.150Z,3.00
2018-07-02T14:20:31.343Z,3.33
2018-07-02T14:22:58.159Z,2.83
2018-07-02T14:25:25.152Z,2.85
2018-07-02T14:27:52.180Z,3.00
2018-07-02T14:30:19.885Z,2.80
2018-07-02T14:32:46.883Z,3.35
2018-07-02T14:35:13.918Z,2.60
2018-07-02T14:40:19.422Z,2.57
2018-07-02T14:42:46.415Z,2.75
2018-07-02T14:45:13.590Z,2.78
2018-07-02T14:47:40.469Z,2.17
2018-07-02T14:50:08.308Z,2.72
2018-07-02T14:52:35.329Z,2.17
2018-07-02T14:55:02.389Z,2.92
2018-07-02T14:57:29.375Z,2.62
2018-07-02T14:59:56.372Z,3.00
2018-07-02T15:02:23.392Z,2.70
2018-07-02T15:04:50.390Z,2.73
2018-07-02T15:07:18.139Z,2.75
2018-07-02T15:09:45.179Z,2.72
2018-07-02T15:12:12.212Z,2.73
2018-07-02T15:14:42.017Z,2.50
2018-07-02T15:17:07.235Z,2.73
2018-07-02T15:19:34.220Z,3.00
2018-07-02T15:22:01.205Z,2.60
2018-07-02T15:24:28.251Z,2.72
2018-07-02T15:26:56.080Z,2.50
2018-07-02T15:29:23.065Z,2.60
2018-07-02T15:31:50.116Z,2.90
2018-07-02T15:34:17.101Z,3.00
2018-07-02T15:36:44.103Z,3.03
2018-07-02T15:39:11.122Z,3.17
2018-07-02T15:41:38.623Z,3.00
2018-07-02T15:44:05.584Z,2.67
2018-07-02T15:46:33.557Z,2.92
2018-07-02T15:49:00.562Z,2.77
2018-07-02T15:51:28.483Z,2.80
2018-07-02T15:53:55.510Z,2.90
2018-07-02T15:56:22.493Z,2.55
2018-07-02T16:01:27.997Z,2.80
2018-07-02T16:03:55.123Z,2.40
2018-07-02T16:06:21.984Z,2.57
2018-07-02T16:08:49.022Z,2.67
2018-07-02T16:11:16.012Z,2.73
2018-07-02T16:13:43.001Z,2.80
2018-07-02T16:16:10.044Z,2.73
2018-07-02T16:18:37.034Z,2.90
2018-07-02T16:21:04.236Z,3.03
2018-07-02T16:23:31.043Z,2.60
2018-07-02T16:25:58.025Z,2.80
2018-07-02T16:31:04.906Z,2.50
2018-07-02T16:33:31.897Z,3.00
2018-07-02T16:35:58.896Z,2.87
2018-07-02T16:38:26.881Z,3.10
2018-07-02T16:40:53.956Z,3.17
2018-07-02T16:43:20.960Z,2.37
2018-07-02T16:45:47.983Z,2.40
2018-07-02T16:48:14.977Z,2.63
2018-07-02T16:50:41.972Z,2.50
2018-07-02T16:53:09.011Z,2.27
2018-07-02T16:55:36.824Z,2.33
2018-07-02T16:58:03.814Z,2.63
2018-07-02T17:00:30.840Z,2.97
2018-07-02T17:02:57.841Z,2.80
2018-07-02T17:05:24.829Z,2.10
2018-07-02T17:07:51.848Z,2.70
2018-07-02T17:10:18.831Z,2.83
2018-07-02T17:12:45.827Z,2.13
2018-07-02T17:15:12.875Z,2.60
2018-07-02T17:17:39.941Z,2.30
2018-07-02T17:20:06.929Z,2.60
2018-07-02T17:22:33.975Z,2.23
2018-07-02T17:25:00.956Z,2.23
2018-07-02T17:27:27.947Z,2.20
2018-07-02T17:29:54.965Z,2.30
2018-07-02T17:32:21.960Z,3.03
2018-07-02T17:34:48.964Z,2.37
2018-07-02T17:39:54.777Z,2.30
2018-07-02T17:42:21.815Z,2.10
2018-07-02T17:44:48.811Z,2.17
2018-07-02T17:47:16.536Z,2.20
2018-07-02T17:49:43.583Z,2.30
2018-07-02T17:52:10.592Z,2.40
2018-07-02T17:54:37.615Z,2.50
2018-07-02T17:57:05.652Z,2.17
2018-07-02T17:59:32.663Z,2.70
2018-07-02T18:01:59.669Z,2.03
2018-07-02T18:04:28.370Z,2.17
2018-07-02T18:06:55.357Z,2.37
2018-07-02T18:09:23.235Z,2.43
2018-07-02T18:11:49.414Z,2.03
2018-07-02T18:14:16.441Z,2.17
2018-07-02T18:16:43.488Z,2.03
2018-07-02T18:19:10.508Z,2.20
2018-07-02T18:21:37.502Z,2.30
2018-07-02T18:24:04.505Z,2.40
2018-07-02T18:26:31.530Z,2.10
2018-07-02T18:28:58.512Z,2.63
2018-07-02T18:31:25.515Z,2.67
2018-07-02T18:33:52.706Z,2.23
2018-07-02T18:36:19.802Z,2.47
2018-07-02T18:38:46.802Z,2.00
2018-07-02T18:41:16.844Z,2.50
2018-07-02T18:43:47.364Z,1.93
2018-07-02T18:46:14.381Z,2.00
2018-07-02T18:48:41.422Z,2.30
2018-07-02T18:53:46.910Z,2.57
2018-07-02T18:56:13.911Z,2.47
2018-07-02T18:58:41.111Z,2.20
2018-07-02T19:01:08.411Z,2.43
2018-07-02T19:03:35.401Z,2.20
2018-07-02T19:06:02.409Z,2.40
2018-07-02T19:08:29.518Z,2.30
2018-07-02T19:10:56.552Z,2.53
2018-07-02T19:13:23.570Z,2.10
2018-07-02T19:15:50.652Z,2.50
2018-07-02T19:18:17.827Z,2.50
2018-07-02T19:20:44.785Z,2.47
2018-07-02T19:23:11.816Z,2.43
2018-07-02T19:25:38.878Z,2.23
2018-07-02T19:28:07.415Z,2.17
2018-07-02T19:30:34.464Z,1.90
2018-07-02T19:33:01.661Z,2.00
2018-07-02T19:35:28.811Z,2.27
2018-07-02T19:37:55.869Z,2.83
2018-07-02T19:40:23.364Z,2.23
2018-07-02T19:42:50.630Z,2.30
2018-07-02T19:45:17.714Z,2.17
2018-07-02T19:47:44.698Z,2.00
2018-07-02T19:50:11.693Z,2.27
2018-07-02T19:52:39.003Z,2.10
2018-07-02T19:55:06.105Z,2.27
2018-07-02T19:57:33.039Z,2.20
2018-07-02T20:00:01.079Z,2.23
2018-07-02T20:02:28.093Z,2.07
2018-07-02T20:04:55.063Z,2.07
2018-07-02T20:07:22.158Z,1.97
2018-07-02T20:09:49.123Z,2.10
2018-07-02T20:14:54.645Z,2.30
2018-07-02T20:17:21.730Z,2.40
2018-07-02T20:19:48.719Z,2.13
2018-07-02T20:22:15.754Z,2.20
2018-07-02T20:24:43.581Z,1.80
2018-07-02T20:27:10.610Z,2.57
2018-07-02T20:29:37.622Z,2.20
2018-07-02T20:32:04.611Z,2.30
2018-07-02T20:34:31.605Z,1.73
2018-07-02T20:36:58.637Z,1.77
2018-07-02T20:39:25.632Z,2.10
2018-07-02T20:41:52.628Z,2.00
2018-07-02T20:44:19.647Z,1.83
2018-07-02T20:46:46.666Z,2.10
2018-07-02T20:49:13.681Z,2.00
2018-07-02T20:51:40.718Z,1.90
2018-07-02T20:54:07.707Z,1.77
2018-07-02T20:56:34.699Z,1.77
2018-07-02T20:59:01.739Z,1.90
2018-07-02T21:01:28.736Z,1.77
2018-07-02T21:03:55.735Z,1.60
2018-07-02T21:06:22.774Z,1.80
2018-07-02T21:08:49.771Z,1.80
2018-07-02T21:11:16.779Z,2.07
2018-07-02T21:13:43.839Z,1.67
2018-07-02T21:16:10.894Z,1.90
2018-07-02T21:18:37.879Z,1.50
2018-07-02T21:21:04.924Z,1.90
2018-07-02T21:23:31.956Z,1.83
2018-07-02T21:25:58.971Z,1.60
2018-07-02T21:28:26.016Z,1.83
2018-07-02T21:33:31.534Z,1.87
2018-07-02T21:35:58.534Z,1.50
2018-07-02T21:38:25.615Z,1.70
2018-07-02T21:40:52.672Z,1.77
2018-07-02T21:43:19.690Z,1.47
2018-07-02T21:45:46.696Z,1.40
2018-07-02T21:48:13.725Z,1.70
2018-07-02T21:50:40.716Z,1.83
2018-07-02T21:53:08.174Z,1.60
2018-07-02T21:55:35.210Z,1.80
2018-07-02T21:58:02.194Z,1.60
2018-07-02T22:03:07.373Z,1.80
2018-07-02T22:05:34.367Z,1.70
2018-07-02T22:08:01.374Z,1.50
2018-07-02T22:10:28.404Z,1.80
2018-07-02T22:12:55.424Z,1.60
2018-07-02T22:15:22.409Z,2.20
2018-07-02T22:17:49.435Z,1.80
2018-07-02T22:20:16.423Z,1.70
2018-07-02T22:22:43.521Z,1.80
2018-07-02T22:25:10.569Z,1.93
2018-07-02T22:27:37.567Z,1.97
2018-07-02T22:30:04.574Z,1.47
2018-07-02T22:32:33.766Z,1.70
2018-07-02T22:35:00.783Z,1.60
2018-07-02T22:37:27.792Z,1.40
2018-07-02T22:39:54.864Z,1.70
2018-07-02T22:42:21.875Z,1.80
2018-07-02T22:44:48.873Z,2.00
2018-07-02T22:47:15.900Z,1.40
2018-07-02T22:49:42.903Z,1.70
2018-07-02T22:52:09.895Z,1.80
2018-07-02T22:54:36.920Z,1.80
2018-07-02T22:57:03.911Z,1.87
2018-07-02T22:59:30.899Z,1.50
2018-07-02T23:01:57.932Z,1.83
2018-07-02T23:04:24.931Z,1.93
2018-07-02T23:06:51.928Z,1.93
2018-07-02T23:09:19.035Z,1.57
2018-07-02T23:14:27.122Z,1.65
2018-07-02T23:16:53.841Z,1.60
2018-07-02T23:19:20.829Z,1.97
2018-07-02T23:21:47.834Z,1.90
2018-07-02T23:24:14.879Z,2.07
2018-07-02T23:26:41.891Z,1.73
2018-07-02T23:29:08.888Z,1.90
2018-07-02T23:31:35.919Z,1.53
2018-07-02T23:34:02.932Z,1.83
2018-07-02T23:36:29.920Z,1.80
2018-07-02T23:38:56.936Z,1.67
2018-07-02T23:44:04.240Z,1.70
2018-07-02T23:46:35.416Z,1.70
2018-07-02T23:49:03.351Z,1.80
2018-07-02T23:51:30.340Z,1.97
2018-07-02T23:54:03.955Z,1.83
2018-07-02T23:56:31.743Z,1.80
2018-07-02T23:58:58.666Z,1.83
